createdAt,value
2019-06-08T00:00:46.843Z,54.96
2019-06-08T00:01:51.066Z,55.55
2019-06-08T00:02:55.818Z,55.42
2019-06-08T00:04:00.011Z,55.16
2019-06-08T00:05:07.265Z,55.08
2019-06-08T00:06:12.634Z,55.43
2019-06-08T00:07:18.822Z,54.98
2019-06-08T00:08:23.102Z,55.21
2019-06-08T00:09:27.942Z,54.92
2019-06-08T00:10:32.369Z,54.80
2019-06-08T00:11:37.188Z,55.02
2019-06-08T00:12:41.373Z,55.65
2019-06-08T00:13:46.606Z,55.85
2019-06-08T00:14:50.867Z,55.99
2019-06-08T00:15:56.033Z,55.86
2019-06-08T00:17:00.220Z,56.35
2019-06-08T00:18:05.595Z,55.95
2019-06-08T00:19:09.775Z,56.03
2019-06-08T00:20:15.432Z,56.03
2019-06-08T00:21:19.705Z,55.58
2019-06-08T00:22:24.820Z,55.35
2019-06-08T00:23:29.006Z,55.88
2019-06-08T00:24:33.859Z,55.59
2019-06-08T00:25:38.095Z,55.46
2019-06-08T00:26:42.863Z,55.54
2019-06-08T00:27:47.138Z,55.10
2019-06-08T00:28:51.902Z,55.32
2019-06-08T00:29:56.090Z,55.32
2019-06-08T00:31:00.896Z,55.62
2019-06-08T00:32:05.079Z,55.50
2019-06-08T00:33:09.850Z,55.82
2019-06-08T00:34:14.514Z,55.81
2019-06-08T00:35:20.666Z,55.98
2019-06-08T00:36:25.134Z,55.77
2019-06-08T00:37:29.906Z,55.70
2019-06-08T00:38:34.350Z,56.03
2019-06-08T00:39:39.383Z,55.65
2019-06-08T00:40:44.211Z,55.83
2019-06-08T00:41:49.009Z,55.86
2019-06-08T00:42:53.311Z,55.93
2019-06-08T00:43:58.030Z,55.68
2019-06-08T00:45:02.483Z,55.62
2019-06-08T00:46:07.289Z,55.16
2019-06-08T00:47:11.449Z,54.90
2019-06-08T00:48:16.717Z,54.77
2019-06-08T00:49:20.954Z,54.98
2019-06-08T00:50:25.721Z,55.28
2019-06-08T00:51:30.006Z,54.82
2019-06-08T00:52:34.848Z,54.50
2019-06-08T00:53:39.106Z,54.72
2019-06-08T00:54:43.922Z,54.35
2019-06-08T00:55:48.064Z,53.79
2019-06-08T00:56:52.973Z,53.75
2019-06-08T00:57:57.143Z,53.60
2019-06-08T00:59:02.105Z,53.26
2019-06-08T01:00:10.627Z,52.93
2019-06-08T01:01:13.257Z,52.54
2019-06-08T01:02:18.243Z,52.05
2019-06-08T01:03:23.821Z,51.87
2019-06-08T01:04:29.145Z,51.74
2019-06-08T01:05:33.985Z,51.50
2019-06-08T01:06:38.202Z,50.97
2019-06-08T01:07:42.962Z,50.40
2019-06-08T01:08:47.353Z,50.19
2019-06-08T01:09:52.122Z,49.69
2019-06-08T01:10:56.383Z,49.51
2019-06-08T01:12:01.462Z,49.05
2019-06-08T01:13:05.725Z,49.07
2019-06-08T01:14:10.525Z,49.06
2019-06-08T01:15:16.402Z,48.70
2019-06-08T01:16:21.202Z,48.70
2019-06-08T01:17:25.382Z,48.46
2019-06-08T01:18:30.291Z,48.31
2019-06-08T01:19:34.505Z,48.15
2019-06-08T01:20:39.349Z,48.14
2019-06-08T01:21:43.477Z,47.56
2019-06-08T01:22:48.382Z,47.56
2019-06-08T01:23:52.566Z,47.88
2019-06-08T01:24:58.414Z,47.64
2019-06-08T01:26:03.174Z,47.55
2019-06-08T01:27:07.997Z,47.32
2019-06-08T01:28:12.854Z,47.29
2019-06-08T01:29:17.699Z,47.16
2019-06-08T01:30:22.254Z,47.00
2019-06-08T01:31:28.369Z,47.27
2019-06-08T01:32:32.577Z,47.06
2019-06-08T01:33:37.368Z,47.38
2019-06-08T01:34:41.563Z,47.27
2019-06-08T01:35:46.330Z,47.32
2019-06-08T01:36:50.587Z,47.38
2019-06-08T01:37:55.498Z,47.05
2019-06-08T01:38:59.694Z,47.27
2019-06-08T01:40:08.291Z,46.98
2019-06-08T01:41:12.472Z,46.93
2019-06-08T01:42:17.242Z,47.02
2019-06-08T01:43:21.844Z,46.89
2019-06-08T01:44:27.950Z,46.93
2019-06-08T01:45:33.169Z,46.93
2019-06-08T01:46:38.186Z,47.02
2019-06-08T01:47:42.371Z,47.01
2019-06-08T01:48:47.142Z,47.11
2019-06-08T01:49:51.359Z,47.19
2019-06-08T01:50:56.151Z,47.30
2019-06-08T01:52:00.421Z,47.28
2019-06-08T01:53:05.171Z,47.28
2019-06-08T01:54:09.348Z,47.35
2019-06-08T01:55:14.144Z,47.45
2019-06-08T01:56:18.357Z,47.52
2019-06-08T01:57:23.181Z,47.30
2019-06-08T01:58:27.452Z,47.23
2019-06-08T01:59:34.550Z,47.25
2019-06-08T02:00:41.486Z,47.15
2019-06-08T02:01:44.684Z,47.18
2019-06-08T02:02:48.870Z,47.11
2019-06-08T02:03:53.638Z,47.00
2019-06-08T02:04:57.822Z,47.13
2019-06-08T02:06:02.775Z,47.23
2019-06-08T02:07:07.010Z,47.18
2019-06-08T02:08:11.775Z,46.87
2019-06-08T02:09:15.963Z,46.79
2019-06-08T02:10:20.727Z,46.77
2019-06-08T02:11:24.984Z,46.67
2019-06-08T02:12:31.072Z,46.66
2019-06-08T02:13:35.400Z,45.96
2019-06-08T02:14:40.167Z,45.96
2019-06-08T02:15:44.464Z,46.44
2019-06-08T02:16:49.248Z,46.02
2019-06-08T02:17:53.420Z,46.20
2019-06-08T02:18:58.203Z,46.36
2019-06-08T02:20:02.421Z,46.22
2019-06-08T02:21:07.201Z,46.32
2019-06-08T02:22:11.482Z,46.30
2019-06-08T02:23:16.250Z,46.14
2019-06-08T02:24:20.435Z,46.12
2019-06-08T02:25:29.376Z,45.95
2019-06-08T02:26:35.146Z,46.06
2019-06-08T02:27:40.758Z,46.00
2019-06-08T02:28:44.946Z,45.79
2019-06-08T02:29:49.747Z,45.63
2019-06-08T02:30:53.935Z,45.59
2019-06-08T02:31:58.786Z,45.48
2019-06-08T02:33:02.972Z,45.33
2019-06-08T02:34:07.811Z,45.61
2019-06-08T02:35:12.017Z,45.66
2019-06-08T02:36:16.808Z,45.78
2019-06-08T02:37:20.991Z,45.58
2019-06-08T02:38:27.472Z,45.54
2019-06-08T02:39:32.742Z,45.43
2019-06-08T02:40:37.662Z,45.50
2019-06-08T02:41:41.829Z,45.50
2019-06-08T02:42:46.632Z,45.38
2019-06-08T02:43:50.810Z,45.22
2019-06-08T02:44:55.588Z,45.40
2019-06-08T02:45:59.811Z,45.44
2019-06-08T02:47:05.480Z,45.42
2019-06-08T02:48:09.728Z,45.27
2019-06-08T02:49:14.519Z,45.26
2019-06-08T02:50:22.082Z,45.33
2019-06-08T02:51:28.639Z,45.31
2019-06-08T02:52:34.224Z,45.25
2019-06-08T02:53:41.395Z,45.35
2019-06-08T02:54:45.790Z,45.24
2019-06-08T02:55:50.805Z,45.17
2019-06-08T02:56:55.067Z,45.11
2019-06-08T02:58:00.136Z,44.88
2019-06-08T02:59:04.640Z,44.96
2019-06-08T03:00:15.649Z,44.79
2019-06-08T03:01:20.145Z,44.80
2019-06-08T03:02:29.621Z,44.84
2019-06-08T03:03:35.745Z,45.13
2019-06-08T03:04:41.284Z,45.09
2019-06-08T03:05:45.554Z,45.11
2019-06-08T03:06:50.325Z,45.00
2019-06-08T03:07:55.070Z,44.83
2019-06-08T03:08:59.960Z,45.07
2019-06-08T03:10:06.045Z,45.32
2019-06-08T03:11:10.980Z,45.47
2019-06-08T03:12:15.168Z,45.45
2019-06-08T03:13:19.944Z,45.15
2019-06-08T03:14:28.802Z,45.16
2019-06-08T03:15:35.068Z,45.06
2019-06-08T03:16:41.555Z,44.99
2019-06-08T03:17:45.928Z,44.89
2019-06-08T03:18:50.126Z,44.90
2019-06-08T03:19:54.940Z,45.03
2019-06-08T03:21:00.153Z,45.13
2019-06-08T03:22:04.921Z,45.00
2019-06-08T03:23:09.103Z,44.97
2019-06-08T03:24:13.880Z,45.10
2019-06-08T03:25:18.256Z,45.11
2019-06-08T03:26:23.190Z,45.10
2019-06-08T03:27:27.370Z,45.11
2019-06-08T03:28:32.660Z,45.09
2019-06-08T03:29:38.986Z,45.14
2019-06-08T03:30:52.971Z,45.16
2019-06-08T03:31:55.744Z,45.13
2019-06-08T03:32:57.337Z,45.33
2019-06-08T03:34:01.818Z,45.47
2019-06-08T03:35:07.493Z,45.41
2019-06-08T03:36:11.708Z,45.33
2019-06-08T03:37:16.588Z,45.24
2019-06-08T03:38:21.478Z,45.38
2019-06-08T03:39:26.251Z,45.33
2019-06-08T03:40:30.771Z,45.34
2019-06-08T03:41:36.257Z,45.61
2019-06-08T03:42:40.843Z,45.41
2019-06-08T03:43:45.683Z,45.35
2019-06-08T03:44:49.869Z,45.35
2019-06-08T03:45:54.636Z,45.34
2019-06-08T03:46:58.825Z,45.21
2019-06-08T03:48:03.687Z,45.09
2019-06-08T03:49:09.004Z,45.01
2019-06-08T03:50:13.828Z,45.17
2019-06-08T03:51:18.101Z,45.50
2019-06-08T03:52:22.958Z,45.51
2019-06-08T03:53:27.245Z,45.20
2019-06-08T03:54:32.079Z,45.20
2019-06-08T03:55:37.998Z,45.01
2019-06-08T03:56:44.168Z,44.90
2019-06-08T03:57:48.395Z,44.98
2019-06-08T03:58:54.295Z,45.00
2019-06-08T03:59:58.542Z,44.86
2019-06-08T04:01:03.311Z,44.80
2019-06-08T04:02:07.564Z,44.62
2019-06-08T04:03:13.597Z,44.71
2019-06-08T04:04:17.929Z,45.06
2019-06-08T04:05:22.673Z,45.31
2019-06-08T04:06:26.860Z,45.45
2019-06-08T04:07:32.973Z,45.63
2019-06-08T04:08:37.975Z,45.64
2019-06-08T04:09:43.974Z,45.74
2019-06-08T04:10:50.442Z,45.75
2019-06-08T04:11:55.322Z,45.73
2019-06-08T04:12:59.798Z,45.72
2019-06-08T04:14:04.781Z,45.58
2019-06-08T04:15:09.047Z,45.53
2019-06-08T04:16:13.851Z,45.54
2019-06-08T04:17:18.105Z,45.58
2019-06-08T04:18:22.953Z,45.49
2019-06-08T04:19:27.552Z,45.43
2019-06-08T04:20:32.673Z,45.54
2019-06-08T04:21:37.869Z,45.61
2019-06-08T04:22:47.080Z,45.55
2019-06-08T04:23:51.742Z,45.62
2019-06-08T04:24:57.494Z,45.86
2019-06-08T04:26:04.227Z,46.07
2019-06-08T04:27:09.014Z,46.08
2019-06-08T04:28:13.337Z,46.06
2019-06-08T04:29:18.103Z,45.98
2019-06-08T04:30:22.548Z,46.07
2019-06-08T04:31:27.381Z,46.35
2019-06-08T04:32:31.896Z,46.40
2019-06-08T04:33:37.799Z,46.43
2019-06-08T04:34:42.924Z,46.47
2019-06-08T04:35:47.987Z,46.40
2019-06-08T04:36:53.447Z,46.36
2019-06-08T04:37:58.320Z,46.37
2019-06-08T04:39:02.583Z,46.23
2019-06-08T04:40:08.200Z,46.33
2019-06-08T04:41:12.382Z,46.57
2019-06-08T04:42:17.210Z,46.54
2019-06-08T04:43:21.395Z,46.65
2019-06-08T04:44:26.189Z,46.68
2019-06-08T04:45:30.551Z,46.61
2019-06-08T04:46:36.382Z,46.67
2019-06-08T04:47:41.499Z,46.41
2019-06-08T04:48:47.897Z,46.31
2019-06-08T04:49:54.105Z,46.49
2019-06-08T04:50:58.901Z,46.53
2019-06-08T04:52:03.266Z,46.56
2019-06-08T04:53:08.151Z,46.45
2019-06-08T04:54:14.578Z,46.25
2019-06-08T04:55:18.878Z,46.25
2019-06-08T04:56:24.219Z,46.01
2019-06-08T04:57:30.427Z,45.86
2019-06-08T04:58:34.572Z,45.79
2019-06-08T04:59:41.156Z,45.83
2019-06-08T05:00:46.278Z,45.88
2019-06-08T05:01:52.182Z,45.88
2019-06-08T05:02:56.358Z,45.97
2019-06-08T05:04:01.187Z,46.29
2019-06-08T05:05:07.074Z,46.62
2019-06-08T05:06:11.864Z,46.57
2019-06-08T05:07:16.165Z,46.77
2019-06-08T05:08:20.930Z,46.86
2019-06-08T05:09:25.178Z,46.77
2019-06-08T05:10:30.144Z,46.39
2019-06-08T05:11:36.409Z,46.26
2019-06-08T05:12:41.358Z,46.21
2019-06-08T05:13:47.515Z,46.70
2019-06-08T05:14:52.663Z,46.42
2019-06-08T05:15:56.972Z,46.59
2019-06-08T05:17:01.742Z,46.74
2019-06-08T05:18:06.225Z,46.20
2019-06-08T05:19:10.981Z,46.38
2019-06-08T05:20:15.182Z,46.09
2019-06-08T05:21:20.164Z,46.10
2019-06-08T05:22:24.675Z,46.02
2019-06-08T05:23:29.518Z,46.12
2019-06-08T05:24:33.704Z,45.38
2019-06-08T05:25:39.077Z,45.67
2019-06-08T05:26:43.650Z,45.65
2019-06-08T05:27:49.543Z,45.96
2019-06-08T05:28:53.981Z,45.79
2019-06-08T05:29:59.746Z,45.82
2019-06-08T05:31:04.684Z,45.56
2019-06-08T05:32:09.611Z,45.58
2019-06-08T05:33:13.794Z,45.56
2019-06-08T05:34:18.567Z,44.97
2019-06-08T05:35:22.751Z,45.17
2019-06-08T05:36:27.542Z,45.57
2019-06-08T05:37:31.959Z,45.61
2019-06-08T05:38:36.966Z,45.42
2019-06-08T05:39:41.457Z,45.22
2019-06-08T05:40:46.286Z,45.06
2019-06-08T05:41:50.616Z,45.15
2019-06-08T05:42:55.389Z,44.74
2019-06-08T05:43:59.604Z,44.55
2019-06-08T05:45:08.462Z,44.61
2019-06-08T05:46:12.646Z,44.71
2019-06-08T05:47:17.507Z,44.53
2019-06-08T05:48:21.709Z,44.66
2019-06-08T05:49:26.507Z,44.75
2019-06-08T05:50:30.786Z,45.43
2019-06-08T05:51:35.558Z,45.42
2019-06-08T05:52:39.933Z,45.46
2019-06-08T05:53:45.853Z,45.36
2019-06-08T05:54:50.263Z,44.98
2019-06-08T05:55:56.199Z,44.41
2019-06-08T05:57:00.475Z,44.63
2019-06-08T05:58:05.523Z,44.60
2019-06-08T05:59:09.726Z,44.25
2019-06-08T06:00:14.604Z,44.27
2019-06-08T06:01:18.913Z,44.73
2019-06-08T06:02:23.697Z,44.05
2019-06-08T06:03:27.883Z,44.80
2019-06-08T06:04:32.657Z,44.96
2019-06-08T06:05:36.910Z,45.05
2019-06-08T06:06:42.415Z,44.96
2019-06-08T06:07:46.780Z,44.92
2019-06-08T06:08:51.671Z,44.87
2019-06-08T06:09:55.861Z,44.65
2019-06-08T06:11:01.783Z,44.34
2019-06-08T06:12:05.967Z,44.36
2019-06-08T06:13:10.891Z,44.53
2019-06-08T06:14:15.165Z,44.15
2019-06-08T06:15:19.935Z,44.04
2019-06-08T06:16:25.423Z,44.22
2019-06-08T06:17:30.214Z,44.62
2019-06-08T06:18:34.401Z,44.25
2019-06-08T06:19:39.201Z,44.16
2019-06-08T06:20:45.266Z,44.32
2019-06-08T06:21:51.573Z,44.24
2019-06-08T06:22:58.591Z,44.19
2019-06-08T06:24:03.862Z,43.79
2019-06-08T06:25:08.807Z,43.67
2019-06-08T06:26:13.613Z,43.61
2019-06-08T06:27:17.795Z,43.24
2019-06-08T06:28:22.591Z,43.07
2019-06-08T06:29:26.799Z,43.38
2019-06-08T06:30:31.646Z,43.14
2019-06-08T06:31:35.821Z,43.32
2019-06-08T06:32:41.747Z,43.33
2019-06-08T06:33:47.854Z,43.44
2019-06-08T06:34:52.823Z,43.32
2019-06-08T06:35:58.027Z,43.64
2019-06-08T06:37:02.794Z,43.76
2019-06-08T06:38:07.032Z,43.38
2019-06-08T06:39:11.878Z,43.24
2019-06-08T06:40:16.170Z,43.18
2019-06-08T06:41:20.937Z,43.48
2019-06-08T06:42:25.964Z,43.84
2019-06-08T06:43:30.735Z,43.79
2019-06-08T06:44:35.095Z,43.87
2019-06-08T06:45:39.859Z,43.87
2019-06-08T06:46:44.067Z,44.14
2019-06-08T06:47:50.347Z,43.84
2019-06-08T06:48:55.156Z,43.94
2019-06-08T06:49:59.994Z,43.95
2019-06-08T06:51:05.231Z,44.03
2019-06-08T06:52:10.079Z,44.34
2019-06-08T06:53:14.271Z,44.73
2019-06-08T06:54:19.045Z,44.56
2019-06-08T06:55:25.380Z,44.59
2019-06-08T06:56:29.791Z,44.46
2019-06-08T06:57:36.475Z,43.93
2019-06-08T06:58:41.517Z,43.73
2019-06-08T06:59:45.758Z,44.19
2019-06-08T07:00:51.566Z,44.25
2019-06-08T07:01:57.672Z,43.75
2019-06-08T07:03:02.559Z,43.91
2019-06-08T07:04:06.914Z,43.73
2019-06-08T07:05:11.770Z,43.42
2019-06-08T07:06:16.027Z,43.52
2019-06-08T07:07:20.817Z,43.76
2019-06-08T07:08:26.127Z,43.89
2019-06-08T07:09:31.107Z,43.45
2019-06-08T07:10:35.366Z,43.73
2019-06-08T07:11:40.280Z,43.28
2019-06-08T07:12:46.517Z,43.45
2019-06-08T07:13:51.312Z,43.69
2019-06-08T07:14:55.603Z,43.66
2019-06-08T07:16:17.170Z,43.16
2019-06-08T07:17:09.046Z,43.08
2019-06-08T07:18:13.925Z,42.69
2019-06-08T07:19:18.357Z,42.63
2019-06-08T07:20:23.221Z,42.90
2019-06-08T07:21:40.867Z,42.98
2019-06-08T07:22:33.991Z,43.21
2019-06-08T07:23:38.316Z,42.84
2019-06-08T07:24:43.086Z,42.49
2019-06-08T07:25:48.410Z,42.64
2019-06-08T07:26:54.462Z,42.67
2019-06-08T07:27:59.794Z,42.63
2019-06-08T07:29:05.691Z,42.23
2019-06-08T07:30:10.306Z,42.42
2019-06-08T07:31:15.078Z,42.66
2019-06-08T07:32:19.355Z,42.96
2019-06-08T07:33:24.177Z,42.89
2019-06-08T07:34:28.435Z,42.70
2019-06-08T07:35:33.920Z,42.85
2019-06-08T07:36:38.176Z,43.04
2019-06-08T07:37:42.968Z,42.34
2019-06-08T07:38:48.676Z,42.40
2019-06-08T07:39:53.766Z,42.14
2019-06-08T07:40:59.994Z,41.58
2019-06-08T07:42:05.274Z,41.33
2019-06-08T07:43:09.631Z,41.73
2019-06-08T07:44:14.504Z,41.90
2019-06-08T07:45:18.720Z,41.69
2019-06-08T07:46:23.656Z,41.32
2019-06-08T07:47:27.841Z,41.37
2019-06-08T07:48:33.702Z,41.76
2019-06-08T07:49:38.183Z,41.49
2019-06-08T07:50:42.988Z,41.33
2019-06-08T07:51:58.681Z,41.38
2019-06-08T07:52:54.647Z,41.50
2019-06-08T07:53:59.900Z,41.40
2019-06-08T07:55:06.834Z,41.80
2019-06-08T07:56:11.022Z,41.56
2019-06-08T07:57:15.820Z,41.80
2019-06-08T07:58:20.032Z,41.53
2019-06-08T07:59:24.875Z,41.63
2019-06-08T08:00:29.202Z,41.59
2019-06-08T08:01:36.479Z,41.52
2019-06-08T08:02:40.350Z,41.36
2019-06-08T08:03:45.113Z,40.87
2019-06-08T08:04:50.509Z,40.58
2019-06-08T08:05:56.727Z,40.74
2019-06-08T08:07:01.140Z,40.70
2019-06-08T08:08:06.045Z,40.71
2019-06-08T08:09:10.242Z,40.99
2019-06-08T08:10:15.124Z,41.12
2019-06-08T08:11:19.428Z,40.65
2019-06-08T08:12:24.250Z,40.53
2019-06-08T08:13:28.582Z,41.03
2019-06-08T08:14:34.400Z,41.04
2019-06-08T08:15:38.722Z,40.33
2019-06-08T08:16:43.592Z,40.72
2019-06-08T08:17:49.058Z,40.13
2019-06-08T08:18:53.987Z,40.13
2019-06-08T08:19:59.406Z,39.77
2019-06-08T08:21:14.319Z,39.67
2019-06-08T08:22:22.334Z,40.14
2019-06-08T08:23:17.378Z,40.19
2019-06-08T08:24:23.259Z,39.73
2019-06-08T08:25:28.245Z,39.52
2019-06-08T08:26:34.446Z,39.02
2019-06-08T08:27:39.156Z,39.14
2019-06-08T08:28:43.511Z,38.85
2019-06-08T08:29:48.976Z,39.20
2019-06-08T08:30:55.416Z,39.06
2019-06-08T08:32:01.994Z,39.12
2019-06-08T08:33:07.789Z,38.98
2019-06-08T08:34:12.799Z,39.27
2019-06-08T08:35:18.573Z,39.19
2019-06-08T08:36:23.401Z,39.00
2019-06-08T08:37:28.156Z,38.89
2019-06-08T08:38:32.958Z,38.41
2019-06-08T08:39:37.629Z,38.52
2019-06-08T08:40:43.723Z,38.54
2019-06-08T08:41:53.716Z,38.05
2019-06-08T08:42:55.709Z,38.02
2019-06-08T08:44:04.293Z,38.42
2019-06-08T08:45:08.667Z,38.69
2019-06-08T08:46:13.384Z,38.57
2019-06-08T08:47:18.668Z,38.58
2019-06-08T08:48:28.163Z,38.51
2019-06-08T08:49:29.530Z,38.29
2019-06-08T08:50:33.715Z,37.19
2019-06-08T08:51:38.879Z,37.22
2019-06-08T08:52:43.077Z,37.69
2019-06-08T08:53:48.144Z,37.72
2019-06-08T08:54:54.312Z,37.20
2019-06-08T08:56:01.276Z,36.79
2019-06-08T08:57:07.714Z,37.08
2019-06-08T08:58:13.161Z,37.46
2019-06-08T08:59:17.850Z,37.27
2019-06-08T09:00:22.954Z,36.81
2019-06-08T09:01:28.916Z,36.90
2019-06-08T09:02:34.003Z,37.23
2019-06-08T09:03:39.600Z,37.60
2019-06-08T09:04:44.791Z,37.45
2019-06-08T09:05:49.001Z,37.10
2019-06-08T09:06:55.345Z,37.10
2019-06-08T09:08:02.086Z,37.14
2019-06-08T09:09:08.922Z,37.20
2019-06-08T09:10:13.362Z,36.71
2019-06-08T09:11:18.157Z,37.21
2019-06-08T09:12:22.375Z,37.55
2019-06-08T09:13:28.102Z,37.50
2019-06-08T09:14:33.574Z,37.40
2019-06-08T09:15:38.423Z,37.96
2019-06-08T09:16:43.111Z,37.95
2019-06-08T09:17:48.374Z,37.79
2019-06-08T09:18:53.748Z,37.50
2019-06-08T09:20:00.339Z,37.36
2019-06-08T09:21:08.162Z,37.24
2019-06-08T09:22:12.095Z,37.67
2019-06-08T09:23:21.609Z,37.90
2019-06-08T09:24:24.035Z,38.37
2019-06-08T09:25:28.282Z,38.39
2019-06-08T09:26:34.704Z,38.01
2019-06-08T09:27:39.028Z,37.90
2019-06-08T09:28:43.842Z,38.20
2019-06-08T09:29:48.330Z,38.19
2019-06-08T09:30:54.152Z,38.01
2019-06-08T09:32:00.734Z,37.67
2019-06-08T09:33:07.809Z,37.58
2019-06-08T09:34:15.193Z,37.83
2019-06-08T09:35:18.633Z,37.51
2019-06-08T09:36:23.813Z,37.68
2019-06-08T09:37:28.926Z,37.38
2019-06-08T09:38:33.144Z,38.04
2019-06-08T09:39:38.509Z,38.33
2019-06-08T09:40:43.073Z,38.20
2019-06-08T09:41:48.077Z,38.08
2019-06-08T09:42:55.875Z,37.96
2019-06-08T09:44:02.367Z,37.80
2019-06-08T09:45:09.331Z,37.32
2019-06-08T09:46:14.181Z,37.24
2019-06-08T09:47:18.603Z,36.87
2019-06-08T09:48:23.401Z,36.34
2019-06-08T09:49:28.086Z,36.53
2019-06-08T09:50:32.858Z,36.22
2019-06-08T09:51:37.887Z,36.13
2019-06-08T09:52:42.754Z,36.45
2019-06-08T09:53:47.625Z,36.61
2019-06-08T09:54:54.175Z,36.48
2019-06-08T09:56:02.431Z,36.90
2019-06-08T09:57:06.621Z,36.56
2019-06-08T09:58:11.981Z,36.76
2019-06-08T09:59:18.834Z,37.20
2019-06-08T10:00:26.332Z,37.17
2019-06-08T10:01:30.197Z,37.36
2019-06-08T10:02:34.389Z,37.15
2019-06-08T10:03:39.414Z,37.14
2019-06-08T10:04:43.644Z,37.15
2019-06-08T10:05:48.567Z,37.29
2019-06-08T10:06:54.227Z,37.32
2019-06-08T10:08:00.885Z,37.48
2019-06-08T10:09:09.019Z,37.96
2019-06-08T10:10:13.627Z,37.23
2019-06-08T10:11:17.907Z,37.37
2019-06-08T10:12:22.675Z,37.31
2019-06-08T10:13:28.061Z,36.50
2019-06-08T10:14:33.682Z,36.87
2019-06-08T10:15:38.739Z,37.13
2019-06-08T10:16:43.679Z,37.57
2019-06-08T10:17:47.993Z,37.28
2019-06-08T10:18:52.762Z,37.51
2019-06-08T10:19:59.401Z,37.44
2019-06-08T10:21:06.019Z,37.42
2019-06-08T10:22:09.447Z,37.17
2019-06-08T10:23:30.317Z,36.70
2019-06-08T10:24:20.097Z,36.44
2019-06-08T10:25:24.971Z,36.55
2019-06-08T10:26:29.270Z,36.39
2019-06-08T10:27:34.125Z,35.97
2019-06-08T10:28:39.038Z,35.70
2019-06-08T10:29:44.888Z,35.83
2019-06-08T10:30:49.158Z,35.79
2019-06-08T10:31:55.106Z,35.44
2019-06-08T10:33:01.827Z,35.00
2019-06-08T10:34:11.002Z,35.32
2019-06-08T10:35:14.353Z,35.23
2019-06-08T10:36:19.184Z,35.10
2019-06-08T10:37:23.458Z,35.05
2019-06-08T10:38:28.938Z,35.06
2019-06-08T10:39:33.399Z,35.08
2019-06-08T10:40:39.319Z,35.46
2019-06-08T10:41:43.492Z,35.38
2019-06-08T10:42:48.429Z,35.89
2019-06-08T10:43:53.624Z,35.27
2019-06-08T10:45:02.818Z,36.09
2019-06-08T10:46:10.268Z,35.84
2019-06-08T10:47:12.088Z,36.45
2019-06-08T10:48:17.922Z,36.02
2019-06-08T10:49:22.832Z,36.33
2019-06-08T10:50:28.788Z,36.57
2019-06-08T10:51:33.675Z,34.41
2019-06-08T10:52:39.130Z,35.04
2019-06-08T10:53:49.343Z,35.00
2019-06-08T10:54:50.412Z,35.64
2019-06-08T10:55:57.850Z,35.93
2019-06-08T10:57:05.007Z,35.63
2019-06-08T10:58:10.899Z,34.28
2019-06-08T10:59:14.273Z,34.13
2019-06-08T11:00:23.992Z,33.88
2019-06-08T11:01:28.800Z,34.11
2019-06-08T11:02:33.674Z,34.38
2019-06-08T11:03:38.842Z,33.69
2019-06-08T11:04:43.870Z,34.30
2019-06-08T11:05:48.315Z,34.40
2019-06-08T11:06:54.828Z,34.75
2019-06-08T11:08:00.665Z,34.32
2019-06-08T11:09:12.292Z,34.65
2019-06-08T11:10:12.906Z,34.94
2019-06-08T11:11:20.196Z,34.78
2019-06-08T11:12:28.126Z,34.57
2019-06-08T11:13:32.313Z,34.56
2019-06-08T11:14:38.169Z,33.50
2019-06-08T11:15:42.977Z,33.84
2019-06-08T11:16:47.569Z,33.29
2019-06-08T11:17:53.577Z,33.14
2019-06-08T11:18:59.076Z,33.30
2019-06-08T11:20:11.155Z,33.73
2019-06-08T11:21:13.070Z,33.96
2019-06-08T11:22:18.971Z,32.53
2019-06-08T11:23:23.156Z,31.76
2019-06-08T11:24:28.948Z,32.48
2019-06-08T11:25:34.324Z,33.32
2019-06-08T11:26:40.334Z,33.82
2019-06-08T11:27:44.672Z,33.79
2019-06-08T11:28:51.222Z,33.81
2019-06-08T11:29:57.451Z,33.00
2019-06-08T11:31:01.966Z,33.16
2019-06-08T11:32:09.318Z,33.06
2019-06-08T11:33:12.642Z,32.95
2019-06-08T11:34:18.691Z,33.11
2019-06-08T11:35:23.318Z,33.14
2019-06-08T11:36:28.166Z,33.42
2019-06-08T11:37:33.093Z,33.31
2019-06-08T11:38:38.231Z,33.30
2019-06-08T11:39:43.049Z,33.47
2019-06-08T11:40:47.831Z,33.56
2019-06-08T11:41:52.670Z,33.50
2019-06-08T11:42:58.618Z,32.91
2019-06-08T11:44:03.821Z,33.25
2019-06-08T11:45:12.735Z,33.28
2019-06-08T11:46:20.627Z,33.17
2019-06-08T11:47:21.952Z,32.66
2019-06-08T11:48:28.520Z,32.58
2019-06-08T11:49:32.831Z,32.71
2019-06-08T11:50:42.363Z,33.17
2019-06-08T11:51:47.832Z,33.12
2019-06-08T11:52:52.724Z,33.16
2019-06-08T11:53:59.268Z,33.40
2019-06-08T11:55:05.363Z,33.44
2019-06-08T11:56:11.740Z,33.28
2019-06-08T11:57:17.695Z,33.66
2019-06-08T11:58:23.231Z,33.00
2019-06-08T11:59:28.559Z,33.08
2019-06-08T12:00:55.658Z,32.63
2019-06-08T12:02:01.912Z,32.99
2019-06-08T12:03:08.832Z,33.30
2019-06-08T12:04:13.564Z,32.91
2019-06-08T12:05:18.161Z,32.88
2019-06-08T12:06:23.685Z,33.05
2019-06-08T12:07:30.294Z,32.43
2019-06-08T12:08:34.475Z,32.98
2019-06-08T12:09:38.664Z,33.06
2019-06-08T12:10:43.527Z,33.32
2019-06-08T12:11:48.104Z,33.70
2019-06-08T12:12:52.968Z,34.35
2019-06-08T12:13:58.492Z,33.69
2019-06-08T12:15:03.364Z,33.33
2019-06-08T12:16:15.028Z,33.65
2019-06-08T12:17:19.196Z,33.04
2019-06-08T12:18:21.258Z,33.80
2019-06-08T12:19:28.391Z,33.84
2019-06-08T12:20:31.914Z,33.97
2019-06-08T12:21:36.690Z,33.62
2019-06-08T12:22:40.894Z,33.89
2019-06-08T12:23:45.658Z,33.76
2019-06-08T12:24:49.838Z,33.44
2019-06-08T12:25:55.354Z,33.23
2019-06-08T12:27:09.357Z,33.58
2019-06-08T12:28:06.443Z,33.67
2019-06-08T12:29:13.051Z,33.65
2019-06-08T12:30:24.931Z,33.56
2019-06-08T12:31:23.070Z,33.17
2019-06-08T12:32:27.923Z,33.21
2019-06-08T12:33:32.186Z,33.17
2019-06-08T12:34:38.377Z,33.05
2019-06-08T12:35:42.928Z,31.73
2019-06-08T12:36:48.199Z,32.23
2019-06-08T12:37:52.371Z,32.66
2019-06-08T12:38:58.611Z,32.32
2019-06-08T12:40:02.850Z,32.18
2019-06-08T12:41:09.586Z,32.57
2019-06-08T12:42:18.758Z,32.77
2019-06-08T12:43:20.391Z,32.97
2019-06-08T12:44:28.455Z,32.73
2019-06-08T12:45:31.166Z,32.89
2019-06-08T12:46:38.353Z,32.85
2019-06-08T12:47:41.813Z,32.89
2019-06-08T12:48:45.995Z,32.93
2019-06-08T12:49:50.762Z,32.91
2019-06-08T12:50:54.965Z,33.12
2019-06-08T12:51:59.736Z,33.46
2019-06-08T12:53:11.244Z,33.91
2019-06-08T12:54:12.764Z,34.03
2019-06-08T12:55:22.290Z,33.71
2019-06-08T12:56:24.341Z,33.67
2019-06-08T12:57:28.706Z,33.80
2019-06-08T12:58:33.415Z,33.60
2019-06-08T12:59:38.441Z,34.29
2019-06-08T13:00:44.330Z,34.03
2019-06-08T13:01:48.535Z,34.12
2019-06-08T13:02:53.317Z,33.39
2019-06-08T13:03:58.074Z,33.25
2019-06-08T13:05:03.059Z,33.69
2019-06-08T13:06:09.155Z,32.66
2019-06-08T13:07:14.963Z,31.58
2019-06-08T13:08:21.483Z,31.88
2019-06-08T13:09:29.706Z,31.93
2019-06-08T13:10:31.650Z,32.24
2019-06-08T13:11:36.419Z,32.71
2019-06-08T13:12:40.988Z,32.03
2019-06-08T13:13:48.889Z,32.25
2019-06-08T13:14:52.734Z,32.29
2019-06-08T13:15:58.060Z,32.74
2019-06-08T13:17:02.278Z,33.26
2019-06-08T13:18:09.854Z,33.64
2019-06-08T13:19:14.378Z,34.27
2019-06-08T13:20:22.187Z,33.27
2019-06-08T13:21:34.483Z,33.15
2019-06-08T13:22:32.441Z,33.29
2019-06-08T13:23:38.337Z,33.94
2019-06-08T13:24:43.121Z,33.21
2019-06-08T13:25:48.080Z,33.12
2019-06-08T13:26:52.991Z,33.66
2019-06-08T13:27:58.372Z,32.65
2019-06-08T13:29:03.170Z,31.69
2019-06-08T13:30:07.619Z,31.84
2019-06-08T13:31:14.786Z,31.81
2019-06-08T13:32:20.667Z,31.49
2019-06-08T13:33:28.113Z,31.13
2019-06-08T13:34:32.232Z,31.62
2019-06-08T13:35:39.573Z,31.85
2019-06-08T13:36:42.883Z,32.18
2019-06-08T13:37:47.755Z,32.79
2019-06-08T13:38:51.938Z,32.79
2019-06-08T13:39:59.189Z,32.56
2019-06-08T13:41:02.654Z,32.88
2019-06-08T13:42:07.811Z,33.15
2019-06-08T13:43:13.281Z,32.84
2019-06-08T13:44:18.099Z,32.72
2019-06-08T13:45:23.502Z,31.90
2019-06-08T13:46:28.384Z,31.97
2019-06-08T13:47:32.542Z,32.62
2019-06-08T13:48:37.677Z,32.63
2019-06-08T13:49:41.862Z,32.19
2019-06-08T13:50:49.333Z,31.80
2019-06-08T13:51:52.597Z,31.97
2019-06-08T13:52:58.775Z,32.38
2019-06-08T13:54:03.214Z,32.45
2019-06-08T13:55:09.026Z,32.58
2019-06-08T13:56:13.215Z,32.57
2019-06-08T13:57:21.844Z,32.67
2019-06-08T13:58:29.783Z,33.07
2019-06-08T13:59:31.035Z,33.25